Sunisa Naree — HSLS — position and weather

sailwx.info

Track history (hours):
 
Tides and Currents Weather Stations Pressure Air Temp Water Temp Dewpoint Dewpoint Depression Visibility Wind Speed Wind Dir Waves Ship Positions

Sunisa Naree

Last reported at 2018-Jul-22 17:59 UTC. Time now 2018-Jul-22 18:01 UTC.
Position N 36°05' W 007°50'.

Length 199 m; draft 12.3 m.

Type: Cargo ship. MMSI: 567111000.

Date/timePositionNaut miles runAvg speedWind from/ knotsBaromVisibWave heightAir tempDewpointWater temp
2018-Jul-22 17:59N 36°05' W 007°50'510.8
2018-Jul-22 17:30N 36°05' W 007°44'611.1
2018-Jul-22 17:00N 36°04' W 007°37'10111.1
2018-Jul-22 07:53N 35°59' W 005°32'4 9.8
2018-Jul-22 07:30N 35°60' W 005°28'4 8.9
2018-Jul-22 07:00N 36°03' W 005°24'3 6.4
2018-Jul-22 06:30N 36°06' W 005°25'0 0.3
2018-Jul-22 05:59N 36°06' W 005°25'0 0.0
2018-Jul-22 05:26N 36°06' W 005°25'0 0.0
2018-Jul-22 04:59N 36°06' W 005°25'0 0.0
2018-Jul-22 04:26N 36°06' W 005°25'0 0.0
2018-Jul-22 03:59N 36°06' W 005°25'0 0.0
2018-Jul-22 03:29N 36°06' W 005°25'0 0.0
2018-Jul-22 02:59N 36°06' W 005°25'0 0.0
2018-Jul-22 02:29N 36°06' W 005°25'0 0.1
2018-Jul-22 01:59N 36°06' W 005°25'0 0.1
2018-Jul-22 01:26N 36°06' W 005°25'0 0.2
2018-Jul-22 00:57N 36°06' W 005°24'1 2.7
2018-Jul-22 00:30N 36°06' W 005°23'3 6.8
2018-Jul-22 00:00N 36°05' W 005°19'4 8.9
2018-Jul-21 23:30N 36°06' W 005°13'4 8.6
2018-Jul-21 23:00N 36°06' W 005°08'4 8.4
2018-Jul-21 22:30N 36°06' W 005°03'4 8.4
2018-Jul-21 22:00N 36°06' W 004°58'4 8.3
2018-Jul-21 21:30N 36°06' W 004°52'5 8.8
2018-Jul-21 20:57N 36°07' W 004°47'19410.5
2018-Jul-21 02:29N 36°26' W 000°46'510.7
2018-Jul-21 02:00N 36°27' W 000°40'1810.8
2018-Jul-21 00:18N 36°31' W 000°18'311.1
2018-Jul-21 00:00N 36°31' W 000°14'511.0
2018-Jul-20 23:30N 36°33' W 000°07'611.3
2018-Jul-20 23:00N 36°34' W 000°00'611.2
2018-Jul-20 22:29N 36°35' E 000°07'1010.6
2018-Jul-20 21:36N 36°38' E 000°18'110.6
2018-Jul-20 21:30N 36°38' E 000°19'510.9
2018-Jul-20 21:00N 36°39' E 000°26'611.1
2018-Jul-20 20:29N 36°40' E 000°33'511.0
2018-Jul-20 20:00N 36°42' E 000°39'611.0
2018-Jul-20 19:30N 36°43' E 000°46'510.9
2018-Jul-20 19:00N 36°44' E 000°52'510.8
2018-Jul-20 18:30N 36°45' E 000°59'611.1
2018-Jul-20 18:00N 36°47' E 001°06'611.3
2018-Jul-20 17:30N 36°48' E 001°13'611.5
2018-Jul-20 17:00N 36°49' E 001°20'611.3
2018-Jul-20 16:27N 36°51' E 001°27'511.3
2018-Jul-20 16:00N 36°52' E 001°33'611.2
2018-Jul-20 15:30N 36°53' E 001°40'611.3
2018-Jul-20 14:59N 36°54' E 001°47'611.3
2018-Jul-20 14:28N 36°56' E 001°55'811.0
2018-Jul-20 13:42N 36°58' E 002°05'210.5
2018-Jul-20 13:29N 36°58' E 002°07'1210.3
2018-Jul-20 12:22N 37°01' E 002°21'1010.4
2018-Jul-20 11:23N 37°03' E 002°34'511.2
2018-Jul-20 10:55N 37°04' E 002°40'511.6
2018-Jul-20 10:30N 37°05' E 002°46'611.7
2018-Jul-20 10:00N 37°07' E 002°53'611.8
2018-Jul-20 09:30N 37°08' E 003°01'612.0
2018-Jul-20 09:00N 37°09' E 003°08'611.9
2018-Jul-20 08:29N 37°10' E 003°16'3012.3
2018-Jul-20 06:04N 37°14' E 003°53'212.2
2018-Jul-20 05:55N 37°14' E 003°55'612.1
2018-Jul-20 05:25N 37°14' E 004°03'511.8
2018-Jul-20 05:00N 37°15' E 004°09'611.6
2018-Jul-20 04:30N 37°15' E 004°16'611.7
2018-Jul-20 03:58N 37°16' E 004°24'1911.5
2018-Jul-20 02:19N 37°19' E 004°47'411.6
2018-Jul-20 02:00N 37°20' E 004°52'611.9
2018-Jul-20 01:30N 37°21' E 004°59'612.1
2018-Jul-20 00:59N 37°21' E 005°07'612.1
2018-Jul-20 00:30N 37°22' E 005°14'612.2
2018-Jul-20 00:00N 37°23' E 005°22'712.5
2018-Jul-19 23:26N 37°24' E 005°31'612.6
2018-Jul-19 23:00N 37°24' E 005°38'612.6
2018-Jul-19 22:30N 37°25' E 005°45'612.5
2018-Jul-19 22:00N 37°26' E 005°53'612.2
2018-Jul-19 21:29N 37°27' E 006°01'612.1
2018-Jul-19 21:00N 37°28' E 006°08'612.0
2018-Jul-19 20:30N 37°29' E 006°16'612.2
2018-Jul-19 20:00N 37°29' E 006°23'20611.6
2018-Jul-19 02:18N 37°38' E 010°43'1211.9
2018-Jul-19 01:16N 37°34' E 010°57'3411.9
2018-Jul-18 22:23N 37°17' E 011°34'2211.8
2018-Jul-18 20:33N 37°05' E 011°58'111.7
2018-Jul-18 20:30N 37°05' E 011°58'612.0
2018-Jul-18 20:00N 37°02' E 012°05'611.8
2018-Jul-18 19:30N 36°59' E 012°11'611.9
2018-Jul-18 19:00N 36°57' E 012°18'611.9
2018-Jul-18 18:28N 36°55' E 012°26'511.4
2018-Jul-18 18:00N 36°53' E 012°32'611.1
2018-Jul-18 17:30N 36°50' E 012°38'611.4
2018-Jul-18 17:00N 36°48' E 012°45'611.4
2018-Jul-18 16:30N 36°46' E 012°51'611.4
2018-Jul-18 15:59N 36°44' E 012°58'611.4
2018-Jul-18 15:30N 36°41' E 013°04'611.6
2018-Jul-18 15:00N 36°39' E 013°11'611.4
2018-Jul-18 14:30N 36°37' E 013°17'611.1
2018-Jul-18 14:00N 36°34' E 013°24'511.0
2018-Jul-18 13:30N 36°32' E 013°30'510.9
2018-Jul-18 13:00N 36°30' E 013°36'510.7
2018-Jul-18 12:30N 36°28' E 013°42'510.4
2018-Jul-18 12:00N 36°26' E 013°48'510.6
2018-Jul-18 11:30N 36°24' E 013°54'1111.1
2018-Jul-18 10:30N 36°19' E 014°07'611.4
2018-Jul-18 10:00N 36°17' E 014°14'611.6
2018-Jul-18 09:30N 36°16' E 014°21'611.5
2018-Jul-18 08:57N 36°14' E 014°28'511.5
2018-Jul-18 08:30N 36°12' E 014°34'611.3
2018-Jul-18 08:00N 36°10' E 014°41'  
2018-Jul-15 14:51N 32°36' E 028°49'15610.6
2018-Jul-15 00:12N 31°44' E 031°43'  
Track history (hours):
 
Tides and Currents Weather Stations Pressure Air Temp Water Temp Dewpoint Dewpoint Depression Visibility Wind Speed Wind Dir Waves Ship Positions

Sunisa Naree

Last reported at 2018-Jul-22 17:59 UTC. Time now 2018-Jul-22 18:01 UTC.
Position N 36°05' W 007°50'.

Length 199 m; draft 12.3 m.

Type: Cargo ship. MMSI: 567111000.

Date/timePositionNaut miles runAvg speedWind from/ knotsBaromVisibWave heightAir tempDewpointWater temp
2018-Jul-22 17:59N 36°05' W 007°50'510.8
2018-Jul-22 17:30N 36°05' W 007°44'611.1
2018-Jul-22 17:00N 36°04' W 007°37'10111.1
2018-Jul-22 07:53N 35°59' W 005°32'4 9.8
2018-Jul-22 07:30N 35°60' W 005°28'4 8.9
2018-Jul-22 07:00N 36°03' W 005°24'3 6.4
2018-Jul-22 06:30N 36°06' W 005°25'0 0.3
2018-Jul-22 05:59N 36°06' W 005°25'0 0.0
2018-Jul-22 05:26N 36°06' W 005°25'0 0.0
2018-Jul-22 04:59N 36°06' W 005°25'0 0.0
2018-Jul-22 04:26N 36°06' W 005°25'0 0.0
2018-Jul-22 03:59N 36°06' W 005°25'0 0.0
2018-Jul-22 03:29N 36°06' W 005°25'0 0.0
2018-Jul-22 02:59N 36°06' W 005°25'0 0.0
2018-Jul-22 02:29N 36°06' W 005°25'0 0.1
2018-Jul-22 01:59N 36°06' W 005°25'0 0.1
2018-Jul-22 01:26N 36°06' W 005°25'0 0.2
2018-Jul-22 00:57N 36°06' W 005°24'1 2.7
2018-Jul-22 00:30N 36°06' W 005°23'3 6.8
2018-Jul-22 00:00N 36°05' W 005°19'4 8.9
2018-Jul-21 23:30N 36°06' W 005°13'4 8.6
2018-Jul-21 23:00N 36°06' W 005°08'4 8.4
2018-Jul-21 22:30N 36°06' W 005°03'4 8.4
2018-Jul-21 22:00N 36°06' W 004°58'4 8.3
2018-Jul-21 21:30N 36°06' W 004°52'5 8.8
2018-Jul-21 20:57N 36°07' W 004°47'19410.5
2018-Jul-21 02:29N 36°26' W 000°46'510.7
2018-Jul-21 02:00N 36°27' W 000°40'1810.8
2018-Jul-21 00:18N 36°31' W 000°18'311.1
2018-Jul-21 00:00N 36°31' W 000°14'511.0
2018-Jul-20 23:30N 36°33' W 000°07'611.3
2018-Jul-20 23:00N 36°34' W 000°00'611.2
2018-Jul-20 22:29N 36°35' E 000°07'1010.6
2018-Jul-20 21:36N 36°38' E 000°18'110.6
2018-Jul-20 21:30N 36°38' E 000°19'510.9
2018-Jul-20 21:00N 36°39' E 000°26'611.1
2018-Jul-20 20:29N 36°40' E 000°33'511.0
2018-Jul-20 20:00N 36°42' E 000°39'611.0
2018-Jul-20 19:30N 36°43' E 000°46'510.9
2018-Jul-20 19:00N 36°44' E 000°52'510.8
2018-Jul-20 18:30N 36°45' E 000°59'611.1
2018-Jul-20 18:00N 36°47' E 001°06'611.3
2018-Jul-20 17:30N 36°48' E 001°13'611.5
2018-Jul-20 17:00N 36°49' E 001°20'611.3
2018-Jul-20 16:27N 36°51' E 001°27'511.3
2018-Jul-20 16:00N 36°52' E 001°33'611.2
2018-Jul-20 15:30N 36°53' E 001°40'611.3
2018-Jul-20 14:59N 36°54' E 001°47'611.3
2018-Jul-20 14:28N 36°56' E 001°55'811.0
2018-Jul-20 13:42N 36°58' E 002°05'210.5
2018-Jul-20 13:29N 36°58' E 002°07'1210.3
2018-Jul-20 12:22N 37°01' E 002°21'1010.4
2018-Jul-20 11:23N 37°03' E 002°34'511.2
2018-Jul-20 10:55N 37°04' E 002°40'511.6
2018-Jul-20 10:30N 37°05' E 002°46'611.7
2018-Jul-20 10:00N 37°07' E 002°53'611.8
2018-Jul-20 09:30N 37°08' E 003°01'612.0
2018-Jul-20 09:00N 37°09' E 003°08'611.9
2018-Jul-20 08:29N 37°10' E 003°16'3012.3
2018-Jul-20 06:04N 37°14' E 003°53'212.2
2018-Jul-20 05:55N 37°14' E 003°55'612.1
2018-Jul-20 05:25N 37°14' E 004°03'511.8
2018-Jul-20 05:00N 37°15' E 004°09'611.6
2018-Jul-20 04:30N 37°15' E 004°16'611.7
2018-Jul-20 03:58N 37°16' E 004°24'1911.5
2018-Jul-20 02:19N 37°19' E 004°47'411.6
2018-Jul-20 02:00N 37°20' E 004°52'611.9
2018-Jul-20 01:30N 37°21' E 004°59'612.1
2018-Jul-20 00:59N 37°21' E 005°07'612.1
2018-Jul-20 00:30N 37°22' E 005°14'612.2
2018-Jul-20 00:00N 37°23' E 005°22'712.5
2018-Jul-19 23:26N 37°24' E 005°31'612.6
2018-Jul-19 23:00N 37°24' E 005°38'612.6
2018-Jul-19 22:30N 37°25' E 005°45'612.5
2018-Jul-19 22:00N 37°26' E 005°53'612.2
2018-Jul-19 21:29N 37°27' E 006°01'612.1
2018-Jul-19 21:00N 37°28' E 006°08'612.0
2018-Jul-19 20:30N 37°29' E 006°16'612.2
2018-Jul-19 20:00N 37°29' E 006°23'20611.6
2018-Jul-19 02:18N 37°38' E 010°43'1211.9
2018-Jul-19 01:16N 37°34' E 010°57'3411.9
2018-Jul-18 22:23N 37°17' E 011°34'2211.8
2018-Jul-18 20:33N 37°05' E 011°58'111.7
2018-Jul-18 20:30N 37°05' E 011°58'612.0
2018-Jul-18 20:00N 37°02' E 012°05'611.8
2018-Jul-18 19:30N 36°59' E 012°11'611.9
2018-Jul-18 19:00N 36°57' E 012°18'611.9
2018-Jul-18 18:28N 36°55' E 012°26'511.4
2018-Jul-18 18:00N 36°53' E 012°32'611.1
2018-Jul-18 17:30N 36°50' E 012°38'611.4
2018-Jul-18 17:00N 36°48' E 012°45'611.4
2018-Jul-18 16:30N 36°46' E 012°51'611.4
2018-Jul-18 15:59N 36°44' E 012°58'611.4
2018-Jul-18 15:30N 36°41' E 013°04'611.6
2018-Jul-18 15:00N 36°39' E 013°11'611.4
2018-Jul-18 14:30N 36°37' E 013°17'611.1
2018-Jul-18 14:00N 36°34' E 013°24'511.0
2018-Jul-18 13:30N 36°32' E 013°30'510.9
2018-Jul-18 13:00N 36°30' E 013°36'510.7
2018-Jul-18 12:30N 36°28' E 013°42'510.4
2018-Jul-18 12:00N 36°26' E 013°48'510.6
2018-Jul-18 11:30N 36°24' E 013°54'1111.1
2018-Jul-18 10:30N 36°19' E 014°07'611.4
2018-Jul-18 10:00N 36°17' E 014°14'611.6
2018-Jul-18 09:30N 36°16' E 014°21'611.5
2018-Jul-18 08:57N 36°14' E 014°28'511.5
2018-Jul-18 08:30N 36°12' E 014°34'611.3
2018-Jul-18 08:00N 36°10' E 014°41'  
2018-Jul-15 14:51N 32°36' E 028°49'15610.6
2018-Jul-15 00:12N 31°44' E 031°43'  

Dump ship's entire track history